Palm Beach International Airport
KPBI : rendu visible

Aérodrome :











RETROUVEZ-NOUS SUR...

 
LOGIN :

S'inscrire | Disclaimer

   EN    FR    IT 

 









Légende :    VFR   VFR Marginal   IFR   IFR Intensif   IFR Très Intensif
Visi : 
Plafond : 
>= 8 km
>= 3000ft
5 à 8 km
1000 à 3000 ft
1500m à 5 km
500 à 1000 ft
800 à 1500m
200 à 500 ft
< 800m
< 200 ft
Symboles :   Orages  Brouillard  Fortes neiges  Fortes précipitations  Vent > 20 kt






- Altitude de l'aérodrome : 19 ft
- Code IATA : PBI


KPBI - Palm Beach International

DERNIER METAR :
  • 132353Z 21008KT 10SM SCT050 SCT150 SCT250 32/23 A2997 RMK AO2 SLP147 60001 T03170228 10350 20294 53005

METARs EXPIRÉS :
  • 132253Z 22008KT 10SM SCT044 SCT150 BKN200 33/23 A2996 RMK AO2 SLP145 CB DSNT NW T03280228
  • 132153Z 26010KT 10SM SCT040 SCT100 BKN200 32/23 A2995 RMK AO2 RAB11E31 TSE32 SLP140 CB DSNT S SW P0001 T03170228
  • 132133Z 26008KT 10SM SCT042 SCT080 BKN200 30/22 A2995 RMK AO2 RAB11E31 TSE32 CB DSNT S SW P0001 T03000222

TAF KPBI
Valide du 14 à 00h jusqu'au 15 à 00h UTC


132320Z 1400/1424 22006KT P6SM SCT030 BKN250
FM141500 22007KT P6SM SCT040 SCT250
FM141800 16009KT P6SM VCTS BKN050CB
PROB30 1418/1424 4SM TSRA BKN030CB
FIR KZMA / Amérique du Nord



MET'MAP, la Météo Aéronautique d'un coup d'oeil ! - Copyright ORBIFLY Décembre 2007 - Disclaimer

ORBIFLY MET'MAP TEAM :

Programmation & Développement : Alexandra Zaïnal
Sur une idée originale de : Baudouin d'Aumeries
Assistance à la programmation : Marc-Olivier Méhu
Soutien technique & logistique : Manuel Goepfert

Contact : metmap@orbifly.com




SOURCES & CREDITS :

   NOAA       Earth
Advisory